Time;durP1;ratioP1;P1;durP2;ratioP2;P2;SDS_P1;SDS_P2;PMS_P1;PMS_P2;Temp;Humidity;BMP_temperature;BMP_pressure;BME280_temperature;BME280_humidity;BME280_pressure;Samples;Min_cycle;Max_cycle;Signal;HPM_P1;HPM_P2
2021/12/09 00:01:39;;;;;;;62.93;24.47;;;2.00;1.00;;;;;;5032825;28;20437;-52
2021/12/09 00:04:10;;;;;;;63.37;25.80;;;1.90;1.00;;;;;;5033478;28;20433;-52
2021/12/09 00:06:36;;;;;;;62.17;26.00;;;1.90;1.00;;;;;;5032189;28;20434;-52
2021/12/09 00:09:10;;;;;;;61.80;24.63;;;1.90;1.00;;;;;;5033263;28;21021;-53
2021/12/09 00:11:43;;;;;;;59.77;25.07;;;1.90;1.00;;;;;;5026106;28;20442;-52
2021/12/09 00:14:35;;;;;;;54.87;24.83;;;2.00;1.00;;;;;;5025031;28;20514;-52
2021/12/09 00:17:06;;;;;;;60.87;24.13;;;2.00;1.00;;;;;;5032615;28;20462;-53
2021/12/09 00:19:32;;;;;;;57.70;23.60;;;2.00;1.00;;;;;;5032813;28;20434;-52
2021/12/09 00:21:59;;;;;;;57.10;23.83;;;2.00;1.00;;;;;;5032980;28;20516;-53
2021/12/09 00:24:25;;;;;;;56.27;23.13;;;2.00;1.00;;;;;;5031658;28;20524;-52
2021/12/09 00:26:51;;;;;;;64.00;23.93;;;2.00;1.00;;;;;;5033102;28;20492;-52
2021/12/09 00:29:18;;;;;;;67.57;25.70;;;2.00;1.00;;;;;;5032705;28;21063;-52
2021/12/09 00:31:44;;;;;;;56.23;23.40;;;2.00;1.00;;;;;;5032663;28;20499;-52
2021/12/09 00:34:10;;;;;;;65.30;24.00;;;2.00;1.00;;;;;;5031416;28;20433;-52
2021/12/09 00:36:43;;;;;;;67.83;26.13;;;2.00;1.00;;;;;;5033036;28;20430;-52
2021/12/09 00:39:11;;;;;;;63.03;24.30;;;1.90;1.00;;;;;;5032357;28;20191;-53
2021/12/09 00:41:37;;;;;;;63.80;25.67;;;1.90;1.00;;;;;;5032995;28;20430;-52
2021/12/09 00:44:04;;;;;;;67.57;26.67;;;1.90;1.00;;;;;;5032536;28;20517;-53
2021/12/09 00:46:30;;;;;;;62.07;27.47;;;1.90;1.00;;;;;;5032650;28;20434;-52
2021/12/09 00:48:56;;;;;;;59.30;26.10;;;2.00;1.00;;;;;;5032181;28;20959;-52
2021/12/09 00:51:22;;;;;;;58.07;24.47;;;2.00;1.00;;;;;;5032835;28;20440;-52
2021/12/09 00:53:47;;;;;;;64.27;25.37;;;2.00;1.00;;;;;;5032278;28;20438;-52
2021/12/09 00:56:14;;;;;;;58.13;24.90;;;2.00;1.00;;;;;;5031948;28;20590;-52
2021/12/09 00:58:41;;;;;;;59.93;24.57;;;1.90;1.00;;;;;;5032263;28;20199;-52
2021/12/09 01:01:08;;;;;;;73.57;26.47;;;1.90;1.00;;;;;;5032071;28;20513;-52
2021/12/09 01:03:35;;;;;;;68.40;26.70;;;1.90;1.00;;;;;;5030233;28;20800;-52
2021/12/09 01:06:03;;;;;;;59.67;24.47;;;1.90;1.00;;;;;;5031135;28;20441;-52
2021/12/09 01:08:29;;;;;;;63.67;26.33;;;1.90;1.00;;;;;;5031934;28;20469;-52
2021/12/09 01:10:54;;;;;;;63.73;25.10;;;1.90;1.00;;;;;;5031604;28;20926;-52
2021/12/09 01:13:20;;;;;;;56.40;25.10;;;1.80;1.00;;;;;;5032468;28;20292;-52
2021/12/09 01:15:46;;;;;;;56.23;24.30;;;1.90;1.00;;;;;;5032335;28;20195;-52
2021/12/09 01:18:11;;;;;;;64.00;26.57;;;1.90;1.00;;;;;;5032148;28;20195;-52
2021/12/09 01:20:37;;;;;;;60.50;25.37;;;1.90;1.00;;;;;;5031841;28;20198;-52
2021/12/09 01:23:03;;;;;;;58.77;26.07;;;1.90;1.00;;;;;;5031437;28;20210;-52
2021/12/09 01:25:37;;;;;;;65.23;26.70;;;1.90;1.00;;;;;;5031468;28;20225;-52
2021/12/09 01:28:09;;;;;;;62.20;25.80;;;1.90;1.00;;;;;;5032009;28;20469;-52
2021/12/09 01:30:35;;;;;;;64.80;25.40;;;1.80;1.00;;;;;;5031698;28;20946;-52
2021/12/09 01:33:02;;;;;;;69.13;26.80;;;1.80;1.00;;;;;;5030447;28;20433;-53
2021/12/09 01:35:33;;;;;;;59.50;23.60;;;1.80;1.00;;;;;;5031834;28;20462;-53
2021/12/09 01:38:09;;;;;;;66.67;26.27;;;1.80;1.00;;;;;;5031277;28;20446;-52
2021/12/09 01:40:34;;;;;;;65.97;26.93;;;1.80;1.00;;;;;;5029175;28;20496;-52
2021/12/09 01:43:00;;;;;;;64.90;25.10;;;1.80;1.00;;;;;;5031548;28;20437;-52
2021/12/09 01:45:27;;;;;;;67.77;26.00;;;1.70;1.00;;;;;;5031478;28;20233;-52
2021/12/09 01:47:53;;;;;;;66.10;25.83;;;1.70;1.00;;;;;;5030801;28;20226;-52
2021/12/09 01:50:20;;;;;;;72.40;27.83;;;1.70;1.00;;;;;;5030839;28;20433;-52
2021/12/09 01:52:45;;;;;;;72.10;27.87;;;1.80;1.00;;;;;;5031314;28;20446;-52
2021/12/09 01:55:13;;;;;;;65.00;27.30;;;1.70;1.00;;;;;;5030722;28;20816;-52
2021/12/09 01:57:39;;;;;;;69.23;25.83;;;1.80;1.00;;;;;;5031157;28;20198;-52
2021/12/09 02:00:08;;;;;;;73.37;28.00;;;1.80;1.00;;;;;;5031012;28;20476;-52
2021/12/09 02:02:34;;;;;;;65.87;27.40;;;1.70;1.00;;;;;;5030402;28;20434;-52
2021/12/09 02:05:00;;;;;;;60.73;26.30;;;1.70;1.00;;;;;;5026606;28;20879;-52
2021/12/09 02:07:25;;;;;;;74.37;25.70;;;1.70;1.00;;;;;;5030959;28;20195;-52
2021/12/09 02:09:51;;;;;;;68.97;26.17;;;1.70;1.00;;;;;;5030484;28;20222;-52
2021/12/09 02:12:16;;;;;;;67.70;28.10;;;1.70;1.00;;;;;;5030738;28;20368;-54
2021/12/09 02:14:43;;;;;;;73.33;28.23;;;1.70;1.00;;;;;;5030913;28;20229;-55
2021/12/09 02:17:11;;;;;;;73.53;28.53;;;1.70;1.00;;;;;;5030312;28;20182;-54
2021/12/09 02:19:40;;;;;;;74.13;27.73;;;1.70;1.00;;;;;;5030541;28;20507;-54
2021/12/09 02:22:06;;;;;;;82.53;28.73;;;1.80;1.00;;;;;;5030530;28;20436;-54
2021/12/09 02:24:31;;;;;;;78.10;29.07;;;1.70;1.00;;;;;;5030662;28;20430;-55
2021/12/09 02:26:58;;;;;;;76.80;28.13;;;1.70;1.00;;;;;;5030721;28;20194;-55
2021/12/09 02:29:23;;;;;;;67.97;26.63;;;1.60;1.00;;;;;;5030096;28;20223;-54
2021/12/09 02:31:54;;;;;;;79.50;29.53;;;1.70;1.00;;;;;;5030878;28;20441;-54
2021/12/09 02:34:20;;;;;;;75.50;28.80;;;1.70;1.00;;;;;;5030077;28;20238;-55
2021/12/09 02:36:46;;;;;;;73.30;30.03;;;1.70;1.00;;;;;;5030253;28;20847;-54
2021/12/09 02:39:13;;;;;;;70.70;29.00;;;1.60;1.00;;;;;;5030577;28;20191;-54
2021/12/09 02:41:40;;;;;;;76.07;27.70;;;1.70;1.00;;;;;;5030136;28;20437;-55
2021/12/09 02:44:09;;;;;;;82.37;27.83;;;1.80;1.00;;;;;;5030372;28;20426;-54
2021/12/09 02:46:38;;;;;;;83.37;29.90;;;1.70;1.00;;;;;;5030604;28;20962;-54
2021/12/09 02:49:16;;;;;;;77.77;27.37;;;1.70;1.00;;;;;;5029576;28;20477;-55
2021/12/09 02:51:43;;;;;;;78.23;28.13;;;1.70;1.00;;;;;;5030214;28;20422;-55
2021/12/09 02:54:11;;;;;;;81.87;31.40;;;1.70;1.00;;;;;;5030000;28;20872;-54
2021/12/09 02:56:37;;;;;;;79.10;29.23;;;1.70;1.00;;;;;;5029831;28;20442;-55
2021/12/09 02:59:05;;;;;;;89.20;30.93;;;1.70;1.00;;;;;;5029629;28;20438;-54
2021/12/09 03:01:35;;;;;;;86.53;30.57;;;1.60;1.00;;;;;;5029831;28;20469;-55
2021/12/09 03:04:05;;;;;;;83.77;28.60;;;1.70;1.00;;;;;;5023740;28;20438;-54
2021/12/09 03:06:40;;;;;;;76.90;30.40;;;1.70;1.00;;;;;;5030268;28;20495;-54
2021/12/09 03:09:18;;;;;;;81.00;29.70;;;1.70;1.00;;;;;;5029558;28;20464;-55
2021/12/09 03:11:48;;;;;;;84.60;30.00;;;1.70;1.00;;;;;;5029992;28;20796;-54
2021/12/09 03:14:13;;;;;;;83.53;29.67;;;1.70;1.00;;;;;;5030030;28;20434;-55
2021/12/09 03:16:39;;;;;;;75.57;28.40;;;1.60;1.00;;;;;;5029868;28;20440;-55
2021/12/09 03:19:07;;;;;;;81.07;29.83;;;1.60;1.00;;;;;;5029527;28;20198;-55
2021/12/09 03:21:37;;;;;;;80.63;30.03;;;1.60;1.00;;;;;;5028245;28;20252;-55
2021/12/09 03:24:05;;;;;;;79.10;28.30;;;1.60;1.00;;;;;;5030003;28;20441;-55
2021/12/09 03:26:35;;;;;;;91.00;30.33;;;1.70;1.00;;;;;;5029837;28;20927;-54
2021/12/09 03:29:07;;;;;;;74.70;28.40;;;1.60;1.00;;;;;;5033373;28;20566;-52
2021/12/09 03:31:32;;;;;;;76.93;28.67;;;1.70;1.00;;;;;;5033998;28;20445;-52
2021/12/09 03:33:59;;;;;;;81.03;30.77;;;1.60;1.00;;;;;;5032308;28;20491;-55
2021/12/09 03:36:28;;;;;;;79.40;29.80;;;1.60;1.00;;;;;;5033375;28;20551;-55
2021/12/09 03:38:57;;;;;;;68.10;27.23;;;1.60;1.00;;;;;;5033431;28;20437;-54
2021/12/09 03:41:23;;;;;;;81.43;30.30;;;1.60;1.00;;;;;;5033900;28;20442;-54
2021/12/09 03:43:49;;;;;;;74.73;29.37;;;1.60;1.00;;;;;;5022520;28;20429;-55
2021/12/09 03:46:15;;;;;;;84.80;29.67;;;1.70;1.00;;;;;;5033831;28;20195;-55
2021/12/09 03:48:40;;;;;;;72.50;29.10;;;1.70;1.00;;;;;;5033252;28;20528;-55
2021/12/09 03:51:06;;;;;;;75.10;29.13;;;1.70;1.00;;;;;;5033751;28;20441;-55
2021/12/09 03:53:32;;;;;;;87.87;29.87;;;1.70;1.00;;;;;;5033107;28;20195;-55
2021/12/09 03:55:57;;;;;;;77.00;28.43;;;1.70;1.00;;;;;;5032929;28;20294;-55
2021/12/09 03:58:23;;;;;;;79.97;28.27;;;1.70;1.00;;;;;;5033319;28;20553;-55
2021/12/09 04:00:49;;;;;;;82.80;30.37;;;1.70;1.00;;;;;;5033561;28;20206;-55
2021/12/09 04:03:17;;;;;;;85.17;29.50;;;1.60;1.00;;;;;;5032763;28;20249;-55
2021/12/09 04:05:43;;;;;;;80.10;29.97;;;1.60;1.00;;;;;;5033080;28;20922;-55
2021/12/09 04:08:09;;;;;;;85.23;30.30;;;1.60;1.00;;;;;;5033105;28;20481;-55
2021/12/09 04:10:35;;;;;;;86.00;31.13;;;1.60;1.00;;;;;;5032988;28;20418;-55
2021/12/09 04:13:00;;;;;;;86.83;29.33;;;1.60;1.00;;;;;;5033254;28;20433;-55
2021/12/09 04:15:26;;;;;;;77.50;28.43;;;1.70;1.00;;;;;;5033345;28;20258;-54
2021/12/09 04:17:52;;;;;;;89.37;30.47;;;1.60;1.00;;;;;;5031647;28;20203;-55
2021/12/09 04:20:18;;;;;;;85.97;30.33;;;1.70;1.00;;;;;;5032795;28;20494;-55
2021/12/09 04:22:48;;;;;;;76.97;28.77;;;1.70;1.00;;;;;;5031609;28;20382;-55
2021/12/09 04:25:16;;;;;;;87.03;31.50;;;1.70;1.00;;;;;;5032317;28;20938;-55
2021/12/09 04:27:42;;;;;;;85.07;32.10;;;1.60;1.00;;;;;;5032640;28;20477;-55
2021/12/09 04:30:08;;;;;;;82.23;28.73;;;1.70;1.00;;;;;;5032878;28;20441;-55
2021/12/09 04:32:34;;;;;;;90.23;30.53;;;1.60;1.00;;;;;;5031321;28;20934;-57
2021/12/09 04:34:59;;;;;;;80.70;30.07;;;1.60;1.00;;;;;;5029314;28;20480;-55
2021/12/09 04:37:25;;;;;;;83.13;31.10;;;1.60;1.00;;;;;;5032754;28;20199;-54
2021/12/09 04:39:50;;;;;;;82.43;29.93;;;1.60;1.00;;;;;;5031291;28;20198;-53
2021/12/09 04:42:16;;;;;;;79.23;29.57;;;1.60;1.00;;;;;;5028528;28;20253;-53
2021/12/09 04:44:42;;;;;;;85.60;30.60;;;1.60;1.00;;;;;;5032725;28;20265;-53
2021/12/09 04:47:07;;;;;;;82.53;30.00;;;1.50;1.00;;;;;;5032316;28;20602;-51
2021/12/09 04:49:33;;;;;;;94.60;31.70;;;1.50;1.00;;;;;;5032155;28;20222;-51
2021/12/09 04:52:00;;;;;;;87.83;29.63;;;1.40;1.00;;;;;;5032535;28;20281;-51
2021/12/09 04:54:26;;;;;;;85.20;29.53;;;1.50;1.00;;;;;;5032425;28;20607;-53
2021/12/09 04:56:52;;;;;;;82.90;29.10;;;1.50;1.00;;;;;;5032159;28;20513;-51
2021/12/09 04:59:18;;;;;;;84.03;28.73;;;1.40;1.00;;;;;;5032039;28;20433;-51
2021/12/09 05:01:48;;;;;;;92.60;30.83;;;1.40;1.00;;;;;;5032590;28;20496;-51
2021/12/09 05:04:14;;;;;;;88.67;29.80;;;1.40;1.00;;;;;;5032181;28;20664;-50
2021/12/09 05:06:40;;;;;;;81.03;28.67;;;1.50;1.00;;;;;;5032224;28;20438;-51
2021/12/09 05:09:10;;;;;;;83.17;29.30;;;1.50;1.00;;;;;;5031265;28;20469;-51
2021/12/09 05:14:04;;;;;;;83.53;28.50;;;1.50;1.00;;;;;;5032090;28;20438;-51
2021/12/09 05:16:30;;;;;;;85.00;28.60;;;1.50;1.00;;;;;;5032334;28;20438;-51
2021/12/09 05:18:58;;;;;;;88.17;30.60;;;1.40;1.00;;;;;;5031506;28;20488;-51
2021/12/09 05:21:30;;;;;;;82.20;29.10;;;1.50;1.00;;;;;;5031944;28;20567;-51
2021/12/09 05:23:57;;;;;;;74.17;28.50;;;1.50;1.00;;;;;;5032073;28;20468;-51
2021/12/09 05:26:28;;;;;;;103.60;31.43;;;1.50;1.00;;;;;;5031978;28;20438;-51
2021/12/09 05:28:56;;;;;;;84.67;29.77;;;1.40;1.00;;;;;;5031941;28;20963;-51
2021/12/09 05:34:07;;;;;;;87.47;30.27;;;1.50;1.00;;;;;;5027732;28;20465;-53
2021/12/09 05:36:33;;;;;;;83.53;30.27;;;1.40;1.00;;;;;;5031272;28;21184;-53
2021/12/09 05:38:58;;;;;;;86.57;29.03;;;1.40;1.00;;;;;;5031899;28;20203;-53
2021/12/09 05:41:24;;;;;;;82.67;28.47;;;1.40;1.00;;;;;;5031907;28;20195;-53
2021/12/09 05:43:50;;;;;;;88.57;28.03;;;1.40;1.00;;;;;;5031260;28;20201;-52
2021/12/09 05:46:17;;;;;;;87.83;30.73;;;1.40;1.00;;;;;;5031287;28;20213;-53
2021/12/09 05:48:42;;;;;;;91.93;30.57;;;1.40;1.00;;;;;;5024192;28;20582;-53
2021/12/09 05:51:08;;;;;;;83.20;27.93;;;1.40;1.00;;;;;;5030741;28;20434;-53
2021/12/09 05:53:34;;;;;;;78.30;29.30;;;1.40;1.00;;;;;;5031370;28;20694;-54
2021/12/09 05:56:01;;;;;;;75.47;30.33;;;1.40;1.00;;;;;;5031273;28;20309;-52
2021/12/09 05:58:26;;;;;;;91.60;31.10;;;1.30;1.00;;;;;;5030925;28;20226;-53
2021/12/09 06:00:53;;;;;;;75.80;28.57;;;1.40;1.00;;;;;;5030287;28;20469;-53
2021/12/09 06:03:20;;;;;;;92.33;31.80;;;1.40;1.00;;;;;;5024690;28;20244;-52
2021/12/09 06:05:47;;;;;;;77.40;28.93;;;1.30;1.00;;;;;;5031318;28;20544;-52
2021/12/09 06:08:13;;;;;;;84.77;28.87;;;1.40;1.00;;;;;;5030676;28;21070;-52
2021/12/09 06:10:38;;;;;;;81.20;30.60;;;1.40;1.00;;;;;;5022895;28;20504;-53
2021/12/09 06:13:04;;;;;;;83.40;28.33;;;1.40;1.00;;;;;;5031114;28;20186;-53
2021/12/09 06:15:30;;;;;;;85.67;30.30;;;1.30;1.00;;;;;;5031003;28;20202;-52
2021/12/09 06:17:56;;;;;;;89.77;29.67;;;1.40;1.00;;;;;;5030404;28;20433;-53
2021/12/09 06:20:22;;;;;;;86.00;31.30;;;1.40;1.00;;;;;;5031069;28;20850;-53
2021/12/09 06:22:47;;;;;;;80.33;29.13;;;1.40;1.00;;;;;;5030806;28;20203;-52
2021/12/09 06:25:18;;;;;;;74.80;27.53;;;1.30;1.00;;;;;;5030581;28;20210;-53
2021/12/09 06:27:45;;;;;;;84.87;29.97;;;1.40;1.00;;;;;;5029647;28;20179;-53
2021/12/09 06:30:11;;;;;;;82.23;29.07;;;1.30;1.00;;;;;;5030294;28;20453;-52
2021/12/09 06:32:37;;;;;;;76.70;28.10;;;1.30;1.00;;;;;;5025508;28;20543;-52
2021/12/09 06:35:04;;;;;;;88.47;28.67;;;1.30;1.00;;;;;;5028551;28;20512;-52
2021/12/09 06:37:30;;;;;;;83.47;29.80;;;1.30;1.00;;;;;;5029374;28;20209;-53
2021/12/09 06:39:55;;;;;;;74.90;29.00;;;1.40;1.00;;;;;;5030230;28;20429;-53
2021/12/09 06:42:21;;;;;;;81.00;28.63;;;1.40;1.00;;;;;;5030658;28;20502;-53
2021/12/09 06:44:47;;;;;;;84.07;30.63;;;1.40;1.00;;;;;;5030562;28;20452;-52
2021/12/09 06:47:12;;;;;;;82.07;30.30;;;1.40;1.00;;;;;;5030548;28;20183;-53
2021/12/09 06:49:38;;;;;;;80.80;29.40;;;1.40;1.00;;;;;;5029742;28;20211;-53
2021/12/09 06:52:04;;;;;;;85.37;30.63;;;1.50;1.00;;;;;;5031974;28;20223;-53
2021/12/09 06:54:29;;;;;;;73.80;29.07;;;1.40;1.00;;;;;;5035018;28;20301;-53
2021/12/09 06:56:55;;;;;;;84.27;30.10;;;1.40;1.00;;;;;;5030344;28;20864;-53
2021/12/09 06:59:20;;;;;;;88.33;30.93;;;1.40;1.00;;;;;;5029700;28;20237;-53
2021/12/09 07:01:46;;;;;;;94.37;30.60;;;1.30;1.00;;;;;;5029781;28;20237;-52
2021/12/09 07:04:12;;;;;;;78.70;28.67;;;1.40;1.00;;;;;;5028550;28;20191;-53
2021/12/09 07:06:38;;;;;;;86.00;31.23;;;1.40;1.00;;;;;;5029016;28;20585;-52
2021/12/09 07:09:05;;;;;;;87.17;29.70;;;1.40;1.00;;;;;;5029331;28;20218;-52
2021/12/09 07:11:31;;;;;;;88.57;29.90;;;1.40;1.00;;;;;;5029935;28;20426;-53
2021/12/09 07:13:58;;;;;;;90.77;29.47;;;1.50;1.00;;;;;;5029854;28;20453;-53
2021/12/09 07:16:23;;;;;;;87.83;29.87;;;1.50;1.00;;;;;;5030146;28;20479;-53
2021/12/09 07:18:50;;;;;;;77.20;29.90;;;1.40;1.00;;;;;;5029502;28;20430;-52
2021/12/09 07:21:16;;;;;;;82.37;30.87;;;1.40;1.00;;;;;;5029373;28;20191;-53
2021/12/09 07:23:41;;;;;;;88.73;31.60;;;1.50;1.00;;;;;;5024564;28;20772;-53
2021/12/09 07:26:07;;;;;;;93.07;32.77;;;1.40;1.00;;;;;;5027780;28;20195;-53
2021/12/09 07:28:33;;;;;;;86.10;30.00;;;1.40;1.00;;;;;;5029233;28;20685;-53
2021/12/09 07:30:59;;;;;;;85.23;30.23;;;1.40;1.00;;;;;;5028201;28;20679;-53
2021/12/09 07:33:25;;;;;;;85.93;31.47;;;1.40;1.00;;;;;;5030745;28;20197;-53
2021/12/09 07:35:51;;;;;;;86.80;29.40;;;1.40;1.00;;;;;;5029856;28;20571;-53
2021/12/09 07:38:16;;;;;;;87.03;31.23;;;1.40;1.00;;;;;;5029205;28;20909;-53
2021/12/09 07:40:42;;;;;;;107.87;34.13;;;1.40;1.00;;;;;;5029290;28;20191;-53
2021/12/09 07:43:07;;;;;;;90.43;30.57;;;1.40;1.00;;;;;;5029034;28;20579;-55
2021/12/09 07:45:33;;;;;;;86.13;29.30;;;1.40;1.00;;;;;;5026008;28;20665;-55
2021/12/09 07:47:59;;;;;;;84.33;30.77;;;1.40;1.00;;;;;;5029528;28;20314;-56
2021/12/09 07:50:28;;;;;;;92.13;32.30;;;1.50;1.00;;;;;;5029760;28;20226;-55
2021/12/09 07:52:55;;;;;;;84.63;28.50;;;1.40;1.00;;;;;;5029412;28;20213;-55
2021/12/09 07:55:22;;;;;;;88.93;30.90;;;1.40;1.00;;;;;;5029488;28;20974;-60
2021/12/09 07:57:49;;;;;;;90.47;32.43;;;1.40;1.00;;;;;;5026476;28;21019;-55
2021/12/09 08:00:21;;;;;;;93.00;32.37;;;1.50;1.00;;;;;;5028887;28;20437;-55
2021/12/09 08:02:49;;;;;;;89.57;32.23;;;1.50;1.00;;;;;;5028496;28;20490;-55
2021/12/09 08:05:16;;;;;;;100.77;32.53;;;1.50;1.00;;;;;;5030299;28;20948;-55
2021/12/09 08:07:41;;;;;;;74.93;29.53;;;1.50;1.00;;;;;;5029834;28;20480;-54
2021/12/09 08:10:10;;;;;;;94.33;35.17;;;1.60;1.00;;;;;;5028541;28;20437;-54
2021/12/09 08:12:36;;;;;;;92.63;33.17;;;1.70;1.00;;;;;;5028136;28;20243;-55
2021/12/09 08:15:03;;;;;;;80.30;32.20;;;1.70;1.00;;;;;;5030246;28;20457;-55
2021/12/09 08:20:05;;;;;;;89.17;31.50;;;1.60;1.00;;;;;;5033672;28;20421;-55
2021/12/09 08:22:31;;;;;;;82.70;30.47;;;1.60;1.00;;;;;;5033423;28;20765;-55
2021/12/09 08:24:58;;;;;;;90.10;33.43;;;1.60;1.00;;;;;;5015632;28;20430;-55
2021/12/09 08:27:25;;;;;;;83.33;30.90;;;1.60;1.00;;;;;;5018183;28;20438;-55
2021/12/09 08:29:51;;;;;;;92.30;31.00;;;1.60;1.00;;;;;;5033167;28;20472;-55
2021/12/09 08:32:16;;;;;;;162.20;61.47;;;1.60;1.00;;;;;;5033362;28;20410;-55
2021/12/09 08:34:42;;;;;;;84.27;32.27;;;1.60;1.00;;;;;;5033404;28;20779;-56
2021/12/09 08:37:08;;;;;;;90.60;31.40;;;1.60;1.00;;;;;;5033176;28;20306;-55
2021/12/09 08:39:33;;;;;;;84.87;30.17;;;1.60;1.00;;;;;;5033183;28;20280;-55
2021/12/09 08:41:59;;;;;;;86.77;30.70;;;1.50;1.00;;;;;;5032514;28;20213;-55
2021/12/09 08:44:24;;;;;;;98.70;32.93;;;1.60;1.00;;;;;;5032606;28;20277;-55
2021/12/09 08:46:50;;;;;;;92.30;31.57;;;1.50;1.00;;;;;;5031565;28;20191;-55
2021/12/09 08:49:15;;;;;;;90.80;31.27;;;1.50;1.00;;;;;;5023615;28;20223;-56
2021/12/09 08:51:41;;;;;;;86.30;31.37;;;1.50;1.00;;;;;;5013173;28;20190;-55
2021/12/09 08:54:07;;;;;;;91.03;32.03;;;1.60;1.00;;;;;;5013257;28;20186;-55
2021/12/09 08:56:34;;;;;;;94.70;30.60;;;1.60;1.00;;;;;;5012937;28;20263;-55
2021/12/09 08:59:02;;;;;;;92.90;31.57;;;1.60;1.00;;;;;;5012901;28;20218;-56
2021/12/09 09:01:28;;;;;;;91.87;31.50;;;1.60;1.00;;;;;;5012725;28;20423;-55
2021/12/09 09:03:53;;;;;;;99.93;32.60;;;1.60;1.00;;;;;;5012903;28;20422;-55
2021/12/09 09:06:19;;;;;;;79.47;30.30;;;1.60;1.00;;;;;;5013089;28;20199;-55
2021/12/09 09:08:45;;;;;;;88.30;29.53;;;1.60;1.00;;;;;;4995397;28;20677;-55
2021/12/09 09:11:11;;;;;;;93.37;32.83;;;1.70;1.00;;;;;;5012581;28;20195;-55
2021/12/09 09:13:36;;;;;;;89.33;32.80;;;1.80;1.00;;;;;;5012588;28;20415;-55
2021/12/09 09:16:02;;;;;;;84.83;29.97;;;1.80;1.00;;;;;;5011940;28;20642;-55
2021/12/09 09:18:28;;;;;;;89.40;31.03;;;1.90;1.00;;;;;;5012670;28;20188;-54
2021/12/09 09:20:53;;;;;;;81.93;29.50;;;1.90;1.00;;;;;;5012722;28;20665;-55
2021/12/09 09:23:20;;;;;;;86.43;29.97;;;1.90;1.00;;;;;;5012684;28;20286;-55
2021/12/09 09:25:47;;;;;;;93.90;34.27;;;1.80;1.00;;;;;;5011765;28;20598;-52
2021/12/09 09:28:13;;;;;;;84.10;30.50;;;1.90;1.00;;;;;;5012443;28;20485;-52
2021/12/09 09:30:43;;;;;;;90.80;30.17;;;1.90;1.00;;;;;;5012672;28;20427;-52
2021/12/09 09:33:14;;;;;;;89.00;31.90;;;2.00;1.00;;;;;;5012483;28;20497;-52
2021/12/09 09:35:41;;;;;;;83.37;29.27;;;2.00;1.00;;;;;;5012077;28;20513;-52
2021/12/09 09:38:07;;;;;;;94.30;33.43;;;2.00;1.00;;;;;;5012399;28;20809;-53
2021/12/09 09:40:49;;;;;;;100.63;33.47;;;1.90;1.00;;;;;;5011904;28;20419;-52
2021/12/09 09:43:32;;;;;;;93.53;31.60;;;2.00;1.00;;;;;;5012441;28;20516;-52
2021/12/09 09:46:04;;;;;;;86.27;29.07;;;2.00;1.00;;;;;;5011851;28;20514;-52
2021/12/09 09:48:30;;;;;;;90.90;31.37;;;2.10;1.00;;;;;;5012018;28;20510;-53
2021/12/09 09:50:56;;;;;;;82.27;29.90;;;2.10;1.00;;;;;;5012049;28;20468;-52
2021/12/09 09:53:22;;;;;;;76.87;30.87;;;2.10;1.00;;;;;;5011964;28;20465;-52
2021/12/09 09:55:47;;;;;;;82.50;30.13;;;2.10;1.00;;;;;;5025150;28;20525;-52
2021/12/09 09:58:15;;;;;;;86.50;30.67;;;2.10;1.00;;;;;;5031649;28;20198;-53
2021/12/09 10:00:41;;;;;;;89.20;29.90;;;2.10;1.00;;;;;;5031693;28;20213;-55
2021/12/09 10:03:10;;;;;;;81.00;30.10;;;2.00;1.00;;;;;;5031475;28;20429;-55
2021/12/09 10:05:38;;;;;;;89.87;33.97;;;2.10;1.00;;;;;;5031619;28;20413;-55
2021/12/09 10:08:06;;;;;;;98.10;32.30;;;2.10;1.00;;;;;;5031056;28;20461;-52
2021/12/09 10:10:32;;;;;;;84.23;30.80;;;2.20;1.00;;;;;;5031778;28;20422;-53
2021/12/09 10:13:02;;;;;;;89.00;33.03;;;2.10;1.00;;;;;;5031626;28;20414;-52
2021/12/09 10:15:36;;;;;;;92.17;29.70;;;2.10;1.00;;;;;;5031051;28;20311;-52
2021/12/09 10:18:03;;;;;;;96.60;32.53;;;2.10;1.00;;;;;;5031323;28;20440;-57
2021/12/09 10:20:50;;;;;;;76.20;29.70;;;2.10;1.00;;;;;;5031041;28;20473;-52
2021/12/09 10:23:29;;;;;;;91.57;30.10;;;2.10;1.00;;;;;;5031105;28;20417;-53
2021/12/09 10:26:13;;;;;;;94.37;31.03;;;2.10;1.00;;;;;;5031099;28;20970;-52
2021/12/09 10:28:47;;;;;;;95.77;30.17;;;2.10;1.00;;;;;;5031211;28;20460;-52
2021/12/09 10:31:20;;;;;;;106.97;32.83;;;2.10;1.00;;;;;;5031445;28;20414;-52
2021/12/09 10:34:03;;;;;;;99.70;33.40;;;2.10;1.00;;;;;;5031286;28;20413;-52
2021/12/09 10:36:45;;;;;;;93.93;32.00;;;2.10;1.00;;;;;;5031232;28;20549;-52
2021/12/09 10:39:27;;;;;;;96.33;31.13;;;2.20;1.00;;;;;;5030802;28;20424;-52
2021/12/09 10:41:55;;;;;;;91.00;30.87;;;2.20;1.00;;;;;;5031003;28;20501;-52
2021/12/09 10:44:32;;;;;;;91.23;31.80;;;2.10;1.00;;;;;;5030697;28;20434;-52
2021/12/09 10:47:11;;;;;;;98.80;32.40;;;2.10;1.00;;;;;;5011809;28;20500;-52
2021/12/09 10:49:48;;;;;;;87.57;30.83;;;2.20;1.00;;;;;;5009743;28;20548;-52
2021/12/09 10:52:21;;;;;;;97.27;31.83;;;2.20;1.00;;;;;;5011152;28;20908;-52
2021/12/09 10:54:47;;;;;;;93.83;33.30;;;2.30;1.00;;;;;;5010935;28;20932;-52
2021/12/09 10:57:28;;;;;;;103.23;34.77;;;2.20;1.00;;;;;;5011172;28;20438;-52
2021/12/09 10:59:54;;;;;;;95.87;32.77;;;2.30;1.00;;;;;;5011074;28;20696;-52
2021/12/09 11:02:20;;;;;;;94.37;31.50;;;2.40;1.00;;;;;;5011203;28;20830;-52
2021/12/09 11:05:06;;;;;;;89.93;32.20;;;2.50;1.00;;;;;;5011200;28;20421;-52
2021/12/09 11:07:32;;;;;;;98.80;32.90;;;2.50;1.00;;;;;;5010771;28;20203;-54
2021/12/09 11:10:23;;;;;;;91.20;31.30;;;2.50;1.00;;;;;;5010688;28;20828;-55
2021/12/09 11:12:58;;;;;;;95.27;31.57;;;2.60;1.00;;;;;;5011028;28;20423;-55
2021/12/09 11:15:57;;;;;;;97.30;33.83;;;2.60;1.00;;;;;;5010883;28;20429;-55
2021/12/09 11:18:44;;;;;;;93.10;31.70;;;2.60;1.00;;;;;;5010712;28;20415;-55
2021/12/09 11:21:29;;;;;;;104.80;33.70;;;2.60;1.00;;;;;;5010496;28;20423;-55
2021/12/09 11:24:02;;;;;;;86.67;30.37;;;2.60;1.00;;;;;;5010810;28;20435;-52
2021/12/09 11:26:41;;;;;;;86.50;29.87;;;2.60;1.00;;;;;;5010403;28;20426;-52
2021/12/09 11:29:11;;;;;;;96.43;32.00;;;2.50;1.00;;;;;;5010736;28;20469;-52
2021/12/09 11:31:55;;;;;;;87.93;30.50;;;2.50;1.00;;;;;;5010683;28;20431;-52
2021/12/09 11:34:25;;;;;;;91.20;31.37;;;2.50;1.00;;;;;;5010451;28;20433;-52
2021/12/09 11:37:01;;;;;;;82.27;28.10;;;2.50;1.00;;;;;;5010546;28;20702;-52
2021/12/09 11:39:33;;;;;;;104.70;31.60;;;2.50;1.00;;;;;;5010653;28;20422;-52
2021/12/09 11:42:16;;;;;;;97.33;33.03;;;2.40;1.00;;;;;;5010559;28;20468;-52
2021/12/09 11:44:44;;;;;;;94.13;31.63;;;2.40;1.00;;;;;;5010387;28;20414;-52
2021/12/09 11:47:09;;;;;;;85.47;31.13;;;2.40;1.00;;;;;;5010944;28;20430;-52
2021/12/09 11:49:36;;;;;;;102.43;33.03;;;2.50;1.00;;;;;;5013127;28;20819;-52
2021/12/09 11:52:01;;;;;;;86.40;30.77;;;2.50;1.00;;;;;;5014651;28;20191;-52
2021/12/09 11:54:27;;;;;;;105.77;33.80;;;2.50;1.00;;;;;;5013964;28;20422;-52
2021/12/09 11:57:17;;;;;;;96.67;33.53;;;2.60;1.00;;;;;;5013113;28;20790;-52
2021/12/09 12:11:30;;;;;;;90.23;32.90;;;2.80;1.00;;;;;;5014459;28;20482;-55
2021/12/09 12:14:03;;;;;;;98.03;32.97;;;2.70;1.00;;;;;;5014087;28;20450;-52
2021/12/09 12:19:50;;;;;;;105.23;33.33;;;2.80;99.90;;;;;;4991107;28;20430;-53
2021/12/09 12:25:30;;;;;;;91.57;30.77;;;2.70;1.00;;;;;;5014042;28;20796;-52
2021/12/09 12:28:55;;;;;;;104.70;34.07;;;2.70;1.00;;;;;;5013701;28;20784;-52
2021/12/09 12:32:07;;;;;;;101.97;31.80;;;2.60;1.00;;;;;;5013857;28;20458;-53
2021/12/09 12:35:42;;;;;;;93.53;34.00;;;2.60;1.00;;;;;;5013490;28;20427;-52
2021/12/09 12:41:01;;;;;;;105.70;33.20;;;2.50;1.00;;;;;;5033377;28;20905;-52
2021/12/09 12:43:56;;;;;;;100.00;32.77;;;2.60;1.00;;;;;;5033015;28;20440;-53
2021/12/09 12:47:10;;;;;;;109.03;34.50;;;2.70;1.00;;;;;;5032094;28;20950;-52
2021/12/09 12:49:36;;;;;;;98.97;31.40;;;2.80;1.00;;;;;;5029282;28;20480;-52
2021/12/09 12:52:15;;;;;;;84.53;29.60;;;2.70;1.00;;;;;;5028744;28;20419;-52
2021/12/09 12:55:05;;;;;;;97.53;30.83;;;2.80;1.00;;;;;;5020618;28;20947;-52
2021/12/09 12:57:43;;;;;;;106.87;31.60;;;2.90;1.00;;;;;;5033017;28;20503;-52
2021/12/09 13:00:28;;;;;;;103.27;34.43;;;3.10;1.00;;;;;;5031515;28;20897;-52
2021/12/09 13:03:21;;;;;;;99.97;35.33;;;3.10;1.00;;;;;;5031475;28;20474;-52
2021/12/09 13:06:10;;;;;;;97.57;33.20;;;3.20;1.00;;;;;;5032250;28;20967;-52
2021/12/09 13:09:08;;;;;;;105.00;34.90;;;3.30;1.00;;;;;;5014368;28;20473;-52
2021/12/09 13:11:43;;;;;;;113.07;32.87;;;3.40;99.90;;;;;;5032673;28;20443;-52
2021/12/09 13:14:17;;;;;;;102.87;32.67;;;3.30;99.90;;;;;;5032856;28;20488;-52
2021/12/09 13:17:10;;;;;;;103.10;33.40;;;3.30;99.90;;;;;;5032901;28;20507;-52
2021/12/09 13:19:50;;;;;;;102.30;34.80;;;3.20;99.90;;;;;;5032752;28;20938;-51
2021/12/09 13:22:22;;;;;;;105.07;34.90;;;3.20;99.90;;;;;;5032970;28;20421;-51
2021/12/09 13:25:00;;;;;;;106.50;34.90;;;3.10;99.90;;;;;;5032836;28;20413;-55
2021/12/09 13:30:19;;;;;;;95.10;34.30;;;3.00;99.90;;;;;;5032120;28;20453;-54